createdAt,value
2023-06-02T00:01:05.084Z,99731.57
2023-06-02T00:04:18.941Z,99737.86
2023-06-02T00:07:21.705Z,99737.83
2023-06-02T00:10:24.818Z,99743.81
2023-06-02T00:13:28.420Z,99741.50
2023-06-02T00:16:34.067Z,99744.09
2023-06-02T00:19:38.300Z,99742.45
2023-06-02T00:22:41.064Z,99749.10
2023-06-02T00:25:44.242Z,99749.46
2023-06-02T00:28:47.010Z,99749.33
2023-06-02T00:31:49.832Z,99748.91
2023-06-02T00:34:53.263Z,99751.88
2023-06-02T00:37:56.443Z,99754.80
2023-06-02T00:40:59.211Z,99750.35
2023-06-02T00:44:01.982Z,99751.05
2023-06-02T00:47:05.061Z,99756.20
2023-06-02T00:50:09.567Z,99757.41
2023-06-02T00:53:12.736Z,99758.33
2023-06-02T00:56:16.263Z,99755.89
2023-06-02T00:59:19.393Z,99757.94
2023-06-02T01:02:23.087Z,99759.30
2023-06-02T01:05:25.831Z,99762.96
2023-06-02T01:08:31.793Z,99758.41
2023-06-02T01:11:34.881Z,99761.18
2023-06-02T01:14:37.745Z,99762.75
2023-06-02T01:17:47.372Z,99759.59
2023-06-02T01:20:53.595Z,99762.90
2023-06-02T01:23:58.714Z,99763.73
2023-06-02T01:27:01.504Z,99764.98
2023-06-02T01:30:04.886Z,99770.89
2023-06-02T01:33:19.727Z,99769.45
2023-06-02T01:36:24.384Z,99767.12
2023-06-02T01:39:29.978Z,99767.23
2023-06-02T01:42:35.088Z,99768.27
2023-06-02T01:45:38.991Z,99773.17
2023-06-02T01:48:41.956Z,99771.61
2023-06-02T01:51:45.643Z,99771.75
2023-06-02T01:54:49.957Z,99774.80
2023-06-02T01:57:53.231Z,99776.54
2023-06-02T02:00:56.024Z,99776.45
2023-06-02T02:03:58.849Z,99773.05
2023-06-02T02:07:02.964Z,99772.08
2023-06-02T02:10:06.258Z,99769.95
2023-06-02T02:13:09.125Z,99774.46
2023-06-02T02:16:12.331Z,99779.63
2023-06-02T02:19:15.464Z,99780.70
2023-06-02T02:22:18.864Z,99776.75
2023-06-02T02:25:21.608Z,99781.45
2023-06-02T02:28:24.937Z,99781.27
2023-06-02T02:31:28.938Z,99783.05
2023-06-02T02:34:34.004Z,99779.81
2023-06-02T02:37:46.613Z,99785.05
2023-06-02T02:40:50.408Z,99777.38
2023-06-02T02:43:53.259Z,99786.09
2023-06-02T02:46:56.235Z,99783.33
2023-06-02T02:49:59.100Z,99780.70
2023-06-02T02:53:02.481Z,99779.46
2023-06-02T02:56:05.930Z,99779.95
2023-06-02T02:59:09.039Z,99782.55
2023-06-02T03:02:13.101Z,99782.50
2023-06-02T03:05:15.928Z,99787.84
2023-06-02T03:08:19.039Z,99790.55
2023-06-02T03:11:22.781Z,99788.98
2023-06-02T03:14:29.257Z,99791.73
2023-06-02T03:17:32.021Z,99797.86
2023-06-02T03:20:34.860Z,99791.85
2023-06-02T03:23:37.650Z,99795.31
2023-06-02T03:26:44.189Z,99791.67
2023-06-02T03:29:46.955Z,99791.02
2023-06-02T03:32:49.803Z,99791.90
2023-06-02T03:35:52.588Z,99793.56
2023-06-02T03:38:55.461Z,99794.64
2023-06-02T03:41:58.161Z,99798.21
2023-06-02T03:45:01.197Z,99795.83
2023-06-02T03:48:04.324Z,99795.46
2023-06-02T03:51:07.936Z,99796.23
2023-06-02T03:54:12.671Z,99797.77
2023-06-02T03:57:16.065Z,99806.00
2023-06-02T04:00:18.866Z,99820.59
2023-06-02T04:03:23.415Z,99827.53
2023-06-02T04:06:27.130Z,99832.56
2023-06-02T04:09:29.898Z,99833.20
2023-06-02T04:12:32.768Z,99833.05
2023-06-02T04:15:35.639Z,99832.13
2023-06-02T04:18:40.053Z,99826.80
2023-06-02T04:21:42.936Z,99833.66
2023-06-02T04:24:46.389Z,99835.14
2023-06-02T04:27:49.160Z,99838.06
2023-06-02T04:30:56.717Z,99845.37
2023-06-02T04:33:59.514Z,99847.23
2023-06-02T04:37:02.373Z,99845.80
2023-06-02T04:40:06.273Z,99845.48
2023-06-02T04:43:09.345Z,99840.77
2023-06-02T04:46:12.250Z,99840.38
2023-06-02T04:49:15.077Z,99847.86
2023-06-02T04:52:17.854Z,99848.55
2023-06-02T04:55:20.839Z,99848.34
2023-06-02T04:58:23.596Z,99851.21
2023-06-02T05:01:26.583Z,99851.80
2023-06-02T05:04:29.438Z,99853.16
2023-06-02T05:07:33.382Z,99857.21
2023-06-02T05:10:36.406Z,99857.29
2023-06-02T05:13:39.098Z,99863.70
2023-06-02T05:16:45.928Z,99864.48
2023-06-02T05:19:49.174Z,99869.76
2023-06-02T05:22:52.072Z,99869.05
2023-06-02T05:25:54.943Z,99873.40
2023-06-02T05:28:59.037Z,99867.71
2023-06-02T05:32:01.792Z,99868.74
2023-06-02T05:35:04.785Z,99864.39
2023-06-02T05:38:07.552Z,99865.45
2023-06-02T05:41:13.517Z,99864.78
2023-06-02T05:44:16.565Z,99869.48
2023-06-02T05:47:19.437Z,99868.77
2023-06-02T05:50:22.617Z,99870.51
2023-06-02T05:53:25.373Z,99881.92
2023-06-02T05:56:28.239Z,99880.66
2023-06-02T05:59:30.882Z,99879.65
2023-06-02T06:02:33.558Z,99884.98
2023-06-02T06:05:36.399Z,99882.20
2023-06-02T06:08:39.526Z,99879.66
2023-06-02T06:11:43.024Z,99881.84
2023-06-02T06:14:45.775Z,99883.48
2023-06-02T06:17:53.428Z,99889.51
2023-06-02T06:20:56.253Z,99895.04
2023-06-02T06:23:59.020Z,99894.88
2023-06-02T06:27:01.665Z,99896.52
2023-06-02T06:30:05.764Z,99895.88
2023-06-02T06:33:09.953Z,99897.08
2023-06-02T06:36:12.827Z,99903.75
2023-06-02T06:39:15.596Z,99905.48
2023-06-02T06:42:18.356Z,99913.98
2023-06-02T06:45:21.276Z,99912.11
2023-06-02T06:48:24.049Z,99914.08
2023-06-02T06:51:26.860Z,99913.27
2023-06-02T06:54:29.499Z,99918.91
2023-06-02T06:57:32.877Z,99917.07
2023-06-02T07:00:35.896Z,99915.30
2023-06-02T07:03:39.169Z,99920.64
2023-06-02T07:06:42.339Z,99925.47
2023-06-02T07:09:45.108Z,99930.85
2023-06-02T07:12:48.488Z,99933.81
2023-06-02T07:15:51.718Z,99930.67
2023-06-02T07:18:54.444Z,99933.21
2023-06-02T07:21:57.348Z,99933.89
2023-06-02T07:25:02.019Z,99934.30
2023-06-02T07:28:05.511Z,99937.10
2023-06-02T07:31:10.914Z,99935.46
2023-06-02T07:34:14.206Z,99933.13
2023-06-02T07:37:17.030Z,99939.94
2023-06-02T07:40:20.890Z,99943.00
2023-06-02T07:43:23.743Z,99943.09
2023-06-02T07:46:26.641Z,99939.13
2023-06-02T07:49:29.458Z,99940.04
2023-06-02T07:52:32.213Z,99941.16
2023-06-02T07:55:35.068Z,99947.09
2023-06-02T07:58:37.882Z,99944.03
2023-06-02T08:01:40.847Z,99947.23
2023-06-02T08:04:43.830Z,99950.41
2023-06-02T08:07:47.319Z,99957.39
2023-06-02T08:10:50.181Z,99958.25
2023-06-02T08:13:52.889Z,99958.17
2023-06-02T08:16:59.124Z,99962.52
2023-06-02T08:20:04.828Z,99953.15
2023-06-02T08:23:08.649Z,99960.70
2023-06-02T08:26:11.436Z,99957.44
2023-06-02T08:29:14.765Z,99957.01
2023-06-02T08:32:18.830Z,99959.98
2023-06-02T08:35:21.649Z,99967.16
2023-06-02T08:38:27.394Z,99969.88
2023-06-02T08:41:30.175Z,99969.48
2023-06-02T08:44:33.114Z,99974.52
2023-06-02T08:47:36.429Z,99972.02
2023-06-02T08:50:42.433Z,99974.33
2023-06-02T08:53:46.220Z,99978.70
2023-06-02T08:56:50.743Z,99978.61
2023-06-02T08:59:53.706Z,99980.66
2023-06-02T09:02:56.568Z,99983.38
2023-06-02T09:05:59.951Z,99988.60
2023-06-02T09:09:03.363Z,99991.96
2023-06-02T09:12:07.524Z,99989.20
2023-06-02T09:15:11.501Z,99996.99
2023-06-02T09:18:14.386Z,100001.66
2023-06-02T09:21:28.494Z,100000.36
2023-06-02T09:24:36.108Z,100002.64
2023-06-02T09:27:51.970Z,100006.16
2023-06-02T09:31:05.566Z,100014.30
2023-06-02T09:34:08.864Z,100015.89
2023-06-02T09:37:14.240Z,100022.26
2023-06-02T09:40:28.508Z,100027.52
2023-06-02T09:43:32.656Z,100026.11
2023-06-02T09:46:40.783Z,100025.83
2023-06-02T09:49:43.827Z,100022.23
2023-06-02T09:53:00.823Z,100010.20
2023-06-02T09:56:04.388Z,100024.55
2023-06-02T09:59:08.758Z,100031.02
2023-06-02T10:02:13.456Z,100029.21
2023-06-02T10:05:19.006Z,100031.48
2023-06-02T10:08:35.905Z,100028.22
2023-06-02T10:12:28.917Z,100025.08
2023-06-02T10:15:53.647Z,100028.90
2023-06-02T10:19:19.692Z,100025.68
2023-06-02T10:22:54.512Z,100025.57
2023-06-02T10:26:22.959Z,100028.76
2023-06-02T10:29:27.275Z,100028.16
2023-06-02T10:32:35.040Z,100024.56
2023-06-02T10:36:01.664Z,100026.16
2023-06-02T10:39:36.438Z,100027.61
2023-06-02T10:42:59.662Z,100037.49
2023-06-02T10:46:18.916Z,100039.80
2023-06-02T10:49:51.611Z,100036.63
2023-06-02T10:53:00.932Z,100039.75
2023-06-02T10:56:44.408Z,100034.58
2023-06-02T10:59:47.343Z,100034.73
2023-06-02T11:02:50.190Z,100034.95
2023-06-02T11:06:16.750Z,100029.67
2023-06-02T11:09:34.745Z,100031.96
2023-06-02T11:12:52.738Z,100033.16
2023-06-02T11:15:56.139Z,100031.29
2023-06-02T11:18:58.909Z,100039.98
2023-06-02T11:22:05.728Z,100042.15
2023-06-02T11:25:10.878Z,100044.05
2023-06-02T11:28:23.768Z,100041.11
2023-06-02T11:31:26.883Z,100035.60
2023-06-02T11:34:29.836Z,100041.73
2023-06-02T11:37:33.252Z,100045.36
2023-06-02T11:40:37.509Z,100043.66
2023-06-02T11:43:46.410Z,100041.69
2023-06-02T11:46:49.595Z,100049.35
2023-06-02T11:49:52.562Z,100043.55
2023-06-02T11:52:56.401Z,100046.95
2023-06-02T11:56:00.197Z,100052.60
2023-06-02T11:59:03.317Z,100059.81
2023-06-02T12:02:25.133Z,100060.86
2023-06-02T12:05:34.909Z,100057.98
2023-06-02T12:08:37.643Z,100050.30
2023-06-02T12:11:40.989Z,100052.85
2023-06-02T12:14:43.740Z,100057.42
2023-06-02T12:17:47.407Z,100055.06
2023-06-02T12:20:50.355Z,100053.23
2023-06-02T12:23:55.106Z,100048.16
2023-06-02T12:26:58.518Z,100051.83
2023-06-02T12:30:01.516Z,100057.66
2023-06-02T12:33:12.584Z,100060.84
2023-06-02T12:36:15.526Z,100050.35
2023-06-02T12:39:19.310Z,100058.36
2023-06-02T12:42:22.281Z,100063.20
2023-06-02T12:45:25.257Z,100061.69
2023-06-02T12:48:28.541Z,100071.98
2023-06-02T12:51:33.173Z,100063.73
2023-06-02T12:54:36.437Z,100067.90
2023-06-02T12:57:39.297Z,100073.17
2023-06-02T13:00:42.580Z,100069.19
2023-06-02T13:03:51.379Z,100060.49
2023-06-02T13:06:54.678Z,100066.42
2023-06-02T13:09:57.532Z,100066.63
2023-06-02T13:13:00.405Z,100068.63
2023-06-02T13:16:03.795Z,100070.65
2023-06-02T13:19:07.064Z,100060.95
2023-06-02T13:22:10.676Z,100067.17
2023-06-02T13:25:13.930Z,100071.27
2023-06-02T13:28:17.222Z,100070.64
2023-06-02T13:31:20.112Z,100072.78
2023-06-02T13:34:22.950Z,100079.84
2023-06-02T13:37:26.126Z,100072.19
2023-06-02T13:40:29.663Z,100074.48
2023-06-02T13:43:32.574Z,100078.35
2023-06-02T13:46:35.419Z,100073.83
2023-06-02T13:49:38.358Z,100079.87
2023-06-02T13:52:41.398Z,100081.92
2023-06-02T13:55:44.203Z,100083.94
2023-06-02T13:58:47.035Z,100072.41
2023-06-02T14:01:49.977Z,100079.29
2023-06-02T14:04:52.884Z,100089.73
2023-06-02T14:07:55.682Z,100085.16
2023-06-02T14:10:58.507Z,100086.27
2023-06-02T14:14:01.282Z,100088.44
2023-06-02T14:17:05.630Z,100091.91
2023-06-02T14:20:09.106Z,100087.28
2023-06-02T14:23:11.933Z,100085.45
2023-06-02T14:26:14.700Z,100082.96
2023-06-02T14:29:17.977Z,100078.60
2023-06-02T14:32:21.185Z,100080.23
2023-06-02T14:35:23.924Z,100081.53
2023-06-02T14:38:26.994Z,100081.17
2023-06-02T14:41:29.910Z,100071.05
2023-06-02T14:44:32.739Z,100080.42
2023-06-02T14:47:35.862Z,100072.20
2023-06-02T14:50:38.998Z,100064.51
2023-06-02T14:53:42.180Z,100071.91
2023-06-02T14:56:44.932Z,100069.61
2023-06-02T14:59:47.700Z,100067.95
2023-06-02T15:02:50.548Z,100069.94
2023-06-02T15:05:53.380Z,100071.49
2023-06-02T15:08:56.209Z,100083.62
2023-06-02T15:11:59.081Z,100080.98
2023-06-02T15:15:01.944Z,100082.41
2023-06-02T15:18:05.090Z,100083.04
2023-06-02T15:21:08.010Z,100084.66
2023-06-02T15:24:10.816Z,100085.11
2023-06-02T15:27:13.746Z,100084.32
2023-06-02T15:30:16.615Z,100088.70
2023-06-02T15:33:19.577Z,100084.82
2023-06-02T15:36:23.481Z,100083.36
2023-06-02T15:39:26.348Z,100081.16
2023-06-02T15:42:29.219Z,100082.55
2023-06-02T15:45:32.028Z,100084.66
2023-06-02T15:48:35.418Z,100085.77
2023-06-02T16:10:02.098Z,100100.67
2023-06-02T16:13:03.768Z,100102.77
2023-06-02T16:16:07.267Z,100098.13
2023-06-02T16:19:09.361Z,100104.55
2023-06-02T16:22:10.982Z,100105.65
2023-06-02T16:25:12.856Z,100110.99
2023-06-02T16:28:14.652Z,100109.38
2023-06-02T16:31:16.805Z,100115.09
2023-06-02T16:34:19.021Z,100116.48
2023-06-02T16:37:20.768Z,100114.27
2023-06-02T16:40:22.537Z,100117.46
2023-06-02T16:43:24.360Z,100116.07
2023-06-02T16:46:26.008Z,100113.86
2023-06-02T16:49:27.470Z,100113.63
2023-06-02T16:52:28.880Z,100123.41
2023-06-02T16:55:30.329Z,100121.11
2023-06-02T16:58:31.754Z,100122.06
2023-06-02T17:01:33.397Z,100128.93
2023-06-02T17:04:35.342Z,100130.75
2023-06-02T17:07:36.888Z,100132.57
2023-06-02T17:10:39.074Z,100134.27
2023-06-02T17:13:40.428Z,100138.73
2023-06-02T17:16:42.050Z,100144.16
2023-06-02T17:19:43.752Z,100144.90
2023-06-02T17:22:45.146Z,100149.95
2023-06-02T17:25:46.872Z,100149.55
2023-06-02T17:28:49.129Z,100152.87
2023-06-02T17:31:50.782Z,100152.60
2023-06-02T17:34:53.091Z,100154.70
2023-06-02T17:37:55.036Z,100157.92
2023-06-02T17:40:56.572Z,100162.00
2023-06-02T17:43:58.019Z,100164.70
2023-06-02T17:47:00.385Z,100166.73
2023-06-02T17:50:02.152Z,100168.94
2023-06-02T17:53:04.171Z,100168.49
2023-06-02T17:56:06.416Z,100174.48
2023-06-02T17:59:09.192Z,100176.09
2023-06-02T18:02:11.034Z,100179.14
2023-06-02T18:05:12.971Z,100182.48
2023-06-02T18:08:14.849Z,100179.14
2023-06-02T18:11:16.618Z,100180.39
2023-06-02T18:14:18.434Z,100180.45
2023-06-02T18:17:21.711Z,100187.07
2023-06-02T18:20:23.924Z,100196.96
2023-06-02T18:23:25.576Z,100198.02
2023-06-02T18:26:28.060Z,100202.31
2023-06-02T18:29:29.873Z,100203.54
2023-06-02T18:32:31.472Z,100203.69
2023-06-02T18:35:33.277Z,100204.58
2023-06-02T18:38:34.734Z,100213.36
2023-06-02T18:41:36.788Z,100213.48
2023-06-02T18:44:38.938Z,100213.46
2023-06-02T18:47:40.992Z,100217.95
2023-06-02T18:50:42.825Z,100217.29
2023-06-02T18:53:44.584Z,100221.65
2023-06-02T18:56:46.524Z,100230.35
2023-06-02T18:59:47.961Z,100238.98
2023-06-02T19:02:49.357Z,100240.28
2023-06-02T19:05:50.863Z,100243.91
2023-06-02T19:08:52.278Z,100247.68
2023-06-02T19:11:54.199Z,100247.52
2023-06-02T19:14:56.274Z,100254.08
2023-06-02T19:17:59.115Z,100254.11
2023-06-02T19:21:03.651Z,100257.13
2023-06-02T19:24:05.709Z,100259.55
2023-06-02T19:27:08.270Z,100264.43
2023-06-02T19:30:11.547Z,100266.95
2023-06-02T19:33:13.526Z,100269.60
2023-06-02T19:36:15.172Z,100276.42
2023-06-02T19:39:16.683Z,100280.27
2023-06-02T19:42:18.613Z,100280.16
2023-06-02T19:45:20.065Z,100283.09
2023-06-02T19:48:21.538Z,100284.44
2023-06-02T19:51:23.038Z,100287.70
2023-06-02T19:54:24.687Z,100289.17
2023-06-02T19:57:27.244Z,100290.27
2023-06-02T20:00:28.748Z,100299.84
2023-06-02T20:03:32.352Z,100303.85
2023-06-02T20:06:33.955Z,100310.43
2023-06-02T20:09:36.063Z,100308.45
2023-06-02T20:12:38.143Z,100312.02
2023-06-02T20:15:40.189Z,100316.20
2023-06-02T20:18:43.162Z,100320.39
2023-06-02T20:21:44.533Z,100331.75
2023-06-02T20:24:51.438Z,100333.05
2023-06-02T20:27:54.551Z,100331.81
2023-06-02T20:30:56.253Z,100338.04
2023-06-02T20:33:57.997Z,100338.91
2023-06-02T20:36:59.525Z,100345.11
2023-06-02T20:40:03.200Z,100352.44
2023-06-02T20:43:06.143Z,100353.48
2023-06-02T20:46:08.782Z,100355.63
2023-06-02T20:49:10.183Z,100364.88
2023-06-02T20:52:11.516Z,100364.46
2023-06-02T20:55:12.978Z,100370.20
2023-06-02T20:58:14.417Z,100369.11
2023-06-02T21:01:18.834Z,100372.44
2023-06-02T21:04:21.179Z,100380.71
2023-06-02T21:07:22.533Z,100382.48
2023-06-02T21:10:24.046Z,100390.24
2023-06-02T21:13:25.413Z,100393.97
2023-06-02T21:16:28.795Z,100402.46
2023-06-02T21:19:30.718Z,100403.06
2023-06-02T21:22:32.972Z,100397.30
2023-06-02T21:25:34.302Z,100398.97
2023-06-02T21:28:35.706Z,100404.95
2023-06-02T21:31:37.105Z,100409.30
2023-06-02T21:34:38.673Z,100408.99
2023-06-02T21:37:40.258Z,100411.51
2023-06-02T21:40:41.561Z,100415.74
2023-06-02T21:43:43.006Z,100417.08
2023-06-02T21:46:44.419Z,100415.94
2023-06-02T21:49:45.944Z,100417.06
2023-06-02T21:52:47.299Z,100415.96
2023-06-02T21:55:48.774Z,100417.11
2023-06-02T21:58:50.056Z,100421.73
2023-06-02T22:01:51.529Z,100425.80
2023-06-02T22:04:52.999Z,100425.52
2023-06-02T22:07:54.423Z,100429.19
2023-06-02T22:11:00.368Z,100428.73
2023-06-02T22:14:02.118Z,100429.50
2023-06-02T22:17:03.542Z,100431.04
2023-06-02T22:20:06.326Z,100434.93
2023-06-02T22:23:07.756Z,100434.77
2023-06-02T22:26:09.735Z,100428.73
2023-06-02T22:29:11.080Z,100432.38
2023-06-02T22:32:12.597Z,100432.41
2023-06-02T22:35:13.982Z,100427.67
2023-06-02T22:38:15.462Z,100431.37
2023-06-02T22:41:16.905Z,100432.55
2023-06-02T22:44:18.432Z,100431.48
2023-06-02T22:47:19.903Z,100434.25
2023-06-02T22:50:21.309Z,100434.84
2023-06-02T22:53:22.739Z,100436.08
2023-06-02T22:56:24.175Z,100437.13
2023-06-02T22:59:25.515Z,100435.62
2023-06-02T23:02:26.929Z,100440.54
2023-06-02T23:05:28.396Z,100436.77
2023-06-02T23:08:30.009Z,100438.09
2023-06-02T23:11:31.475Z,100442.05
2023-06-02T23:14:33.244Z,100438.73
2023-06-02T23:17:35.079Z,100436.64
2023-06-02T23:20:36.459Z,100438.66
2023-06-02T23:23:37.916Z,100438.96
2023-06-02T23:26:39.485Z,100438.56
2023-06-02T23:29:41.112Z,100446.35
2023-06-02T23:32:42.678Z,100441.30
2023-06-02T23:35:44.095Z,100444.81
2023-06-02T23:38:45.533Z,100446.95
2023-06-02T23:41:46.866Z,100450.25
2023-06-02T23:44:48.604Z,100452.73
2023-06-02T23:47:49.992Z,100452.55
2023-06-02T23:50:51.588Z,100453.29
2023-06-02T23:53:52.892Z,100456.26
2023-06-02T23:56:54.462Z,100459.75
2023-06-02T23:59:55.896Z,100460.77
